Time;durP1;ratioP1;P1;durP2;ratioP2;P2;SDS_P1;SDS_P2;PMS_P1;PMS_P2;Temp;Humidity;BMP_temperature;BMP_pressure;BME280_temperature;BME280_humidity;BME280_pressure;Samples;Min_cycle;Max_cycle;Signal;HPM_P1;HPM_P2
2022/07/04 00:00:09;;;;;;;5.07;3.63;;;20.30;67.40;;;;;;5013171;28;20104;-69
2022/07/04 00:02:36;;;;;;;4.43;3.25;;;20.20;68.00;;;;;;5013324;28;20108;-70
2022/07/04 00:05:02;;;;;;;3.20;3.00;;;20.20;68.30;;;;;;5013223;28;20018;-69
2022/07/04 00:07:28;;;;;;;4.03;3.25;;;20.10;68.30;;;;;;5012179;28;20381;-68
2022/07/04 00:09:54;;;;;;;3.20;2.90;;;20.10;68.50;;;;;;5012848;28;20036;-68
2022/07/04 00:12:20;;;;;;;4.30;3.42;;;20.00;68.60;;;;;;5012753;28;20029;-68
2022/07/04 00:14:45;;;;;;;5.15;3.70;;;20.00;68.60;;;;;;5012979;28;20018;-68
2022/07/04 00:17:11;;;;;;;4.43;3.42;;;20.00;69.00;;;;;;5004472;28;20037;-69
2022/07/04 00:19:37;;;;;;;4.95;3.50;;;19.90;69.20;;;;;;5004890;28;20388;-69
2022/07/04 00:22:03;;;;;;;4.97;3.90;;;19.90;69.50;;;;;;5012819;28;20093;-69
2022/07/04 00:24:28;;;;;;;4.13;3.45;;;19.90;69.30;;;;;;5012437;28;20026;-68
2022/07/04 00:26:54;;;;;;;3.70;3.38;;;19.90;69.10;;;;;;5012918;28;20136;-68
2022/07/04 00:29:20;;;;;;;3.65;3.30;;;19.80;69.50;;;;;;5011898;28;20025;-69
2022/07/04 00:31:45;;;;;;;4.05;3.65;;;19.70;69.90;;;;;;5012775;28;20048;-68
2022/07/04 00:34:11;;;;;;;4.80;3.30;;;19.70;69.90;;;;;;5012525;28;20029;-69
2022/07/04 00:36:37;;;;;;;3.47;3.17;;;19.70;70.00;;;;;;5012664;28;20026;-70
2022/07/04 00:39:03;;;;;;;4.03;3.63;;;19.70;69.90;;;;;;5011932;28;20032;-69
2022/07/04 00:41:29;;;;;;;4.55;3.33;;;19.70;70.00;;;;;;5012527;28;20026;-69
2022/07/04 00:44:03;;;;;;;4.18;3.35;;;19.50;70.20;;;;;;5012503;28;20145;-68
2022/07/04 00:46:28;;;;;;;3.80;3.50;;;19.50;70.30;;;;;;4981044;28;20119;-69
2022/07/04 00:48:54;;;;;;;4.10;2.83;;;19.60;70.40;;;;;;5010781;28;20061;-69
2022/07/04 00:51:20;;;;;;;3.90;3.50;;;19.60;69.90;;;;;;5012611;28;20555;-68
2022/07/04 00:53:46;;;;;;;2.85;2.60;;;19.60;68.50;;;;;;5013120;28;20021;-69
2022/07/04 00:56:11;;;;;;;3.05;2.75;;;19.60;68.40;;;;;;5008140;28;20090;-69
2022/07/04 00:58:37;;;;;;;2.70;2.50;;;19.70;67.20;;;;;;5012497;28;20088;-69
2022/07/04 01:01:03;;;;;;;2.58;1.90;;;19.90;64.90;;;;;;5012338;28;20480;-69
2022/07/04 01:03:29;;;;;;;4.20;2.55;;;20.00;63.50;;;;;;5012772;28;20034;-70
2022/07/04 01:05:58;;;;;;;2.47;2.13;;;20.10;62.50;;;;;;5012319;28;20025;-70
2022/07/04 01:08:24;;;;;;;1.98;1.83;;;20.20;62.10;;;;;;5012295;28;20542;-70
2022/07/04 01:10:49;;;;;;;4.45;2.00;;;20.40;61.50;;;;;;5012146;28;20030;-68
2022/07/04 01:13:24;;;;;;;3.33;2.03;;;20.40;61.40;;;;;;5012242;28;20494;-69
2022/07/04 01:15:50;;;;;;;4.90;1.98;;;20.40;60.90;;;;;;5011991;28;20563;-69
2022/07/04 01:18:17;;;;;;;2.15;1.67;;;20.40;60.60;;;;;;4997756;28;20358;-69
2022/07/04 01:20:43;;;;;;;6.28;1.58;;;20.50;60.40;;;;;;5012144;28;20101;-70
2022/07/04 01:23:09;;;;;;;2.72;2.00;;;20.40;60.50;;;;;;5012113;28;20018;-70
2022/07/04 01:25:35;;;;;;;4.30;2.08;;;20.40;60.30;;;;;;5012100;28;20396;-70
2022/07/04 01:28:01;;;;;;;5.05;2.17;;;20.50;60.20;;;;;;5011791;28;20038;-70
2022/07/04 01:30:28;;;;;;;3.90;1.60;;;20.50;59.80;;;;;;5011649;28;20028;-70
2022/07/04 01:32:53;;;;;;;2.67;1.98;;;20.50;59.60;;;;;;5011874;28;20022;-70
2022/07/04 01:35:20;;;;;;;3.00;1.77;;;20.50;59.50;;;;;;5010814;28;20034;-68
2022/07/04 01:37:46;;;;;;;2.45;1.58;;;20.50;59.40;;;;;;5012013;28;20519;-69
2022/07/04 01:40:12;;;;;;;3.38;1.80;;;20.50;59.30;;;;;;5010682;28;20061;-69
2022/07/04 01:42:39;;;;;;;3.15;2.00;;;20.50;59.30;;;;;;5012118;28;20022;-69
2022/07/04 01:45:05;;;;;;;5.55;1.77;;;20.50;59.30;;;;;;5012212;28;20037;-70
2022/07/04 01:47:31;;;;;;;2.40;1.77;;;20.40;59.40;;;;;;5011429;28;20022;-69
2022/07/04 01:49:56;;;;;;;2.88;1.70;;;20.40;59.60;;;;;;5011807;28;20492;-69
2022/07/04 01:52:22;;;;;;;2.03;1.80;;;20.40;59.50;;;;;;5011906;28;20030;-68
2022/07/04 01:54:48;;;;;;;4.43;1.60;;;20.40;59.70;;;;;;5012508;28;20026;-71
2022/07/04 01:57:13;;;;;;;1.80;1.13;;;20.30;59.90;;;;;;5012123;28;20179;-69
2022/07/04 02:02:24;;;;;;;2.08;1.50;;;20.20;59.40;;;;;;5011558;28;20103;-69
2022/07/04 02:04:50;;;;;;;1.95;1.50;;;20.20;59.50;;;;;;5011978;28;20042;-69
2022/07/04 02:07:15;;;;;;;2.25;1.70;;;20.20;59.70;;;;;;5011465;28;20025;-68
2022/07/04 02:09:41;;;;;;;1.55;1.42;;;20.10;59.70;;;;;;5011537;28;20044;-69
2022/07/04 02:14:51;;;;;;;3.35;1.92;;;20.10;59.80;;;;;;5011920;28;20119;-68
2022/07/04 02:17:17;;;;;;;4.15;1.63;;;20.10;59.80;;;;;;5002823;28;20069;-69
2022/07/04 02:19:43;;;;;;;4.97;1.35;;;20.00;59.60;;;;;;5005417;28;20029;-69
2022/07/04 02:22:09;;;;;;;1.65;1.30;;;20.00;59.60;;;;;;5011382;28;20064;-69
2022/07/04 02:24:34;;;;;;;3.65;1.88;;;20.00;60.00;;;;;;5011434;28;20022;-70
2022/07/04 02:27:00;;;;;;;1.45;1.33;;;20.00;59.90;;;;;;5011296;28;20472;-69
2022/07/04 02:29:26;;;;;;;4.40;1.42;;;20.00;60.30;;;;;;5011111;28;20026;-69
2022/07/04 02:31:51;;;;;;;3.75;1.70;;;20.00;60.10;;;;;;5011352;28;20030;-70
2022/07/04 02:34:17;;;;;;;7.20;1.58;;;19.90;60.30;;;;;;5011328;28;20022;-69
2022/07/04 02:36:43;;;;;;;11.52;2.13;;;19.90;60.50;;;;;;5011370;28;20061;-68
2022/07/04 02:39:08;;;;;;;6.68;1.65;;;19.80;60.60;;;;;;5011214;28;20454;-69
2022/07/04 02:41:34;;;;;;;2.70;1.23;;;19.80;61.00;;;;;;5010348;28;20022;-69
2022/07/04 02:44:00;;;;;;;4.10;1.58;;;19.70;61.10;;;;;;5014771;28;20089;-69
2022/07/04 02:46:26;;;;;;;2.00;1.42;;;19.90;60.90;;;;;;5015167;28;20110;-70
2022/07/04 02:48:52;;;;;;;4.57;1.80;;;19.80;61.10;;;;;;5014764;28;20432;-69
2022/07/04 02:51:17;;;;;;;2.70;1.33;;;19.80;61.20;;;;;;5015256;28;20030;-69
2022/07/04 02:53:43;;;;;;;5.35;1.63;;;19.70;61.40;;;;;;5015016;28;20029;-69
2022/07/04 02:56:08;;;;;;;5.60;1.65;;;19.70;61.60;;;;;;5014438;28;20026;-70
2022/07/04 02:58:34;;;;;;;5.40;1.88;;;19.70;61.50;;;;;;5014335;28;20026;-68
2022/07/04 03:01:00;;;;;;;2.35;1.58;;;19.70;61.70;;;;;;5011258;28;20355;-69
2022/07/04 03:03:26;;;;;;;3.78;1.73;;;19.70;61.60;;;;;;5006157;28;20018;-69
2022/07/04 03:05:52;;;;;;;13.43;7.45;;;19.60;61.60;;;;;;5014334;28;20484;-71
2022/07/04 03:08:18;;;;;;;8.90;5.35;;;19.70;61.60;;;;;;4996074;28;20042;-69
2022/07/04 03:10:43;;;;;;;2.60;1.85;;;19.70;61.60;;;;;;5014323;28;20030;-68
2022/07/04 03:13:09;;;;;;;6.68;2.17;;;19.70;61.50;;;;;;5014458;28;20033;-69
2022/07/04 03:15:35;;;;;;;4.28;2.17;;;19.70;61.60;;;;;;5014419;28;20040;-69
2022/07/04 03:18:00;;;;;;;16.70;8.32;;;19.80;61.80;;;;;;4999977;28;20042;-68
2022/07/04 03:20:26;;;;;;;1.83;1.42;;;19.80;61.70;;;;;;5014152;28;20368;-69
2022/07/04 03:22:54;;;;;;;2.80;1.88;;;19.80;61.60;;;;;;5014414;28;20064;-69
2022/07/04 03:25:20;;;;;;;5.72;1.75;;;19.80;61.40;;;;;;5014306;28;20443;-69
2022/07/04 03:27:46;;;;;;;3.42;1.30;;;19.80;61.50;;;;;;5014550;28;20081;-69
2022/07/04 03:30:12;;;;;;;4.75;1.58;;;19.90;61.40;;;;;;5014190;28;20511;-68
2022/07/04 03:32:38;;;;;;;2.45;1.50;;;20.00;61.30;;;;;;5014352;28;20240;-69
2022/07/04 03:35:04;;;;;;;2.80;1.38;;;;;;;;;;5015230;28;20104;-69
2022/07/04 03:37:30;;;;;;;2.63;1.42;;;;;;;;;;5020429;28;20029;-68
2022/07/04 03:39:56;;;;;;;3.13;1.40;;;;;;;;;;5018769;28;20067;-70
2022/07/04 03:42:22;;;;;;;2.20;1.90;;;;;;;;;;5013518;28;20030;-67
2022/07/04 03:44:48;;;;;;;3.55;1.48;;;;;;;;;;5013785;28;20022;-69
2022/07/04 03:47:14;;;;;;;4.70;1.40;;;;;;;;;;5013627;28;20073;-69
2022/07/04 03:49:40;;;;;;;1.40;1.05;;;;;;;;;;5013565;28;20046;-69
2022/07/04 03:52:06;;;;;;;3.47;1.52;;;;;;;;;;5013611;28;20061;-69
2022/07/04 03:54:32;;;;;;;3.92;1.67;;;;;;;;;;5013313;28;20030;-68
2022/07/04 03:56:58;;;;;;;7.90;1.20;;;;;;;;;;5013563;28;20018;-69
2022/07/04 03:59:24;;;;;;;3.33;1.60;;;25.80;45.20;;;;;;5013148;28;20468;-69
2022/07/04 04:01:49;;;;;;;4.97;1.70;;;25.40;46.20;;;;;;5013124;28;20057;-69
2022/07/04 04:06:59;;;;;;;5.53;1.40;;;24.90;47.70;;;;;;5013205;28;20033;-70
2022/07/04 04:09:25;;;;;;;3.80;1.33;;;25.10;47.30;;;;;;5037029;22;20034;-68
2022/07/04 04:11:51;;;;;;;9.02;1.58;;;25.20;47.40;;;;;;5027634;28;20029;-68
2022/07/04 04:14:17;;;;;;;3.53;1.27;;;25.40;46.70;;;;;;5016348;28;20694;-69
2022/07/04 04:16:43;;;;;;;2.05;1.25;;;25.80;46.00;;;;;;5023231;28;20122;-68
2022/07/04 04:19:09;;;;;;;4.00;1.40;;;25.90;45.70;;;;;;5002091;28;20028;-68
2022/07/04 04:21:35;;;;;;;3.83;1.77;;;25.80;46.20;;;;;;5011795;28;20116;-69
2022/07/04 04:24:01;;;;;;;4.30;1.20;;;26.00;46.00;;;;;;4994657;28;20442;-69
2022/07/04 04:26:27;;;;;;;5.05;1.30;;;;;;;;;;5001771;28;20370;-69
2022/07/04 04:28:53;;;;;;;4.75;1.77;;;;;;;;;;5011998;28;20022;-69
2022/07/04 04:31:19;;;;;;;6.10;1.13;;;;;;;;;;5011387;28;20060;-69
2022/07/04 04:33:45;;;;;;;4.07;1.30;;;;;;;;;;5012567;28;20052;-70
2022/07/04 04:36:11;;;;;;;4.75;1.38;;;;;;;;;;5012723;28;20038;-69
2022/07/04 04:38:38;;;;;;;5.03;1.58;;;;;;;;;;5012036;28;20487;-70
2022/07/04 04:41:04;;;;;;;2.55;1.10;;;;;;;;;;5012663;28;20021;-70
2022/07/04 04:43:30;;;;;;;1.90;1.33;;;;;;;;;;5010986;28;20060;-69
2022/07/04 04:45:55;;;;;;;3.15;1.58;;;30.70;36.70;;;;;;5012427;28;20048;-69
2022/07/04 04:48:21;;;;;;;3.20;1.15;;;31.00;36.30;;;;;;5011930;28;20472;-70
2022/07/04 04:50:50;;;;;;;3.55;1.30;;;31.20;35.90;;;;;;5012311;28;20029;-71
2022/07/04 04:53:15;;;;;;;2.65;1.30;;;30.90;36.20;;;;;;5012509;28;20092;-68
2022/07/04 04:55:41;;;;;;;4.45;1.40;;;31.00;36.30;;;;;;4995939;28;20473;-68
2022/07/04 04:58:06;;;;;;;4.40;1.40;;;31.40;35.70;;;;;;5008111;28;20041;-67
2022/07/04 05:00:32;;;;;;;6.80;1.50;;;31.50;35.60;;;;;;4996276;28;20018;-69
2022/07/04 05:02:58;;;;;;;10.75;1.98;;;32.20;34.60;;;;;;5010142;28;20072;-69
2022/07/04 05:05:24;;;;;;;5.63;1.60;;;32.00;34.60;;;;;;5010128;28;20492;-69
2022/07/04 05:07:49;;;;;;;5.00;1.90;;;30.60;36.70;;;;;;5011058;28;20033;-70
2022/07/04 05:10:15;;;;;;;7.00;2.40;;;29.00;39.80;;;;;;5011599;28;20293;-69
2022/07/04 05:12:42;;;;;;;3.78;1.98;;;26.90;44.40;;;;;;5011927;28;20479;-70
2022/07/04 05:15:09;;;;;;;5.60;2.00;;;25.90;47.00;;;;;;5011709;28;20037;-70
2022/07/04 05:17:35;;;;;;;4.85;2.25;;;25.40;48.80;;;;;;5000721;28;20022;-69
2022/07/04 05:20:01;;;;;;;3.85;1.60;;;25.60;48.50;;;;;;5007986;28;20552;-69
2022/07/04 05:22:27;;;;;;;2.85;1.80;;;25.50;48.80;;;;;;4979589;28;20491;-69
2022/07/04 05:24:53;;;;;;;4.53;1.80;;;;;;;;;;5011724;28;20022;-68
2022/07/04 05:27:19;;;;;;;3.75;2.08;;;27.80;44.70;;;;;;5011184;28;20475;-66
2022/07/04 05:29:45;;;;;;;8.68;2.17;;;;;;;;;;5011260;28;20030;-70
2022/07/04 05:32:11;;;;;;;7.38;1.70;;;;;;;;;;5011588;28;20029;-69
2022/07/04 05:34:37;;;;;;;3.95;1.65;;;31.40;36.90;;;;;;5011455;28;20022;-68
2022/07/04 05:37:03;;;;;;;3.90;1.42;;;31.40;36.80;;;;;;5011121;28;20025;-69
2022/07/04 05:39:29;;;;;;;8.13;2.00;;;32.40;35.10;;;;;;5011441;28;20045;-68
2022/07/04 05:41:55;;;;;;;5.00;1.23;;;33.00;34.20;;;;;;5010576;28;20484;-69
2022/07/04 05:44:20;;;;;;;5.53;1.70;;;33.90;33.20;;;;;;5011098;28;20076;-70
2022/07/04 05:46:46;;;;;;;2.65;1.42;;;;;;;;;;5011085;28;20026;-67
2022/07/04 05:49:12;;;;;;;8.23;1.80;;;35.40;30.90;;;;;;5010279;28;20029;-69
2022/07/04 05:51:37;;;;;;;3.65;1.60;;;35.40;30.50;;;;;;5011284;28;20030;-69
2022/07/04 05:54:03;;;;;;;3.80;1.38;;;35.20;30.90;;;;;;5011056;28;20041;-70
2022/07/04 05:56:30;;;;;;;4.57;1.58;;;34.90;31.20;;;;;;5011058;28;20057;-69
2022/07/04 05:58:55;;;;;;;5.00;1.55;;;35.60;30.20;;;;;;5010741;28;20499;-70
2022/07/04 06:01:21;;;;;;;4.25;1.30;;;35.90;29.50;;;;;;5010810;28;20026;-68
2022/07/04 06:03:47;;;;;;;4.57;1.48;;;35.60;29.90;;;;;;5011164;28;20438;-68
2022/07/04 06:06:12;;;;;;;7.55;1.50;;;35.60;30.10;;;;;;5011152;28;20022;-69
2022/07/04 06:08:38;;;;;;;5.38;1.60;;;36.70;28.40;;;;;;5011224;28;20021;-70
2022/07/04 06:11:04;;;;;;;3.80;1.70;;;36.80;28.00;;;;;;5009744;28;20065;-69
2022/07/04 06:13:29;;;;;;;4.95;1.55;;;37.10;28.00;;;;;;5011232;28;20057;-66
2022/07/04 06:15:55;;;;;;;3.38;1.65;;;36.80;28.30;;;;;;5010491;28;20387;-69
2022/07/04 06:18:21;;;;;;;4.20;1.40;;;36.20;29.20;;;;;;4998981;28;20022;-67
2022/07/04 06:20:47;;;;;;;4.07;1.85;;;36.70;28.30;;;;;;5008962;28;20037;-72
2022/07/04 06:23:12;;;;;;;6.47;1.65;;;36.40;28.50;;;;;;4997638;28;20049;-71
2022/07/04 06:25:38;;;;;;;3.75;1.13;;;36.30;29.00;;;;;;5006365;28;20034;-73
2022/07/04 06:28:04;;;;;;;12.23;8.15;;;;;;;;;;5014529;28;20032;-74
2022/07/04 06:30:30;;;;;;;19.88;13.18;;;;;;;;;;5014567;28;20051;-73
2022/07/04 06:32:57;;;;;;;8.65;5.28;;;;;;;;;;5014843;28;20097;-75
2022/07/04 06:38:09;;;;;;;5.45;3.20;;;;;;;;;;5006133;28;20038;-73
2022/07/04 06:40:36;;;;;;;5.05;1.67;;;;;;;;;;5013837;28;20105;-75
2022/07/04 06:43:03;;;;;;;6.78;4.88;;;;;;;;;;5014831;28;20022;-73
2022/07/04 06:45:29;;;;;;;8.82;6.43;;;38.80;25.40;;;;;;5015032;28;20077;-73
2022/07/04 06:47:54;;;;;;;7.70;2.42;;;38.90;25.20;;;;;;5014230;28;20112;-70
2022/07/04 06:50:20;;;;;;;5.72;2.90;;;38.80;25.40;;;;;;5013032;28;20088;-75
2022/07/04 06:52:46;;;;;;;8.52;2.50;;;38.90;25.10;;;;;;5014395;28;20034;-74
2022/07/04 06:55:12;;;;;;;7.47;3.10;;;39.60;24.80;;;;;;5013260;28;20036;-75
2022/07/04 06:57:38;;;;;;;4.72;1.80;;;40.20;24.20;;;;;;5014595;28;20022;-74
2022/07/04 07:00:05;;;;;;;5.20;3.65;;;39.60;24.50;;;;;;5012839;28;20163;-75
2022/07/04 07:02:33;;;;;;;5.32;1.92;;;39.90;24.10;;;;;;5014084;28;20029;-73
2022/07/04 07:04:59;;;;;;;3.08;1.40;;;39.20;24.70;;;;;;5014426;28;20448;-74
2022/07/04 07:07:25;;;;;;;3.63;1.70;;;38.80;25.00;;;;;;5012390;28;20028;-75
2022/07/04 07:09:52;;;;;;;8.38;2.58;;;;;;;;;;5014441;28;20387;-75
2022/07/04 07:12:18;;;;;;;4.80;2.63;;;;;;;;;;5014113;28;20060;-76
2022/07/04 07:14:44;;;;;;;5.22;1.92;;;38.60;25.70;;;;;;5013936;28;20022;-74
2022/07/04 07:17:10;;;;;;;3.42;2.05;;;39.70;24.80;;;;;;5014149;28;20569;-77
2022/07/04 07:19:35;;;;;;;5.97;1.05;;;40.40;23.70;;;;;;5012578;28;20599;-72
2022/07/04 07:22:01;;;;;;;2.97;1.40;;;;;;;;;;5013910;28;20018;-73
2022/07/04 07:24:30;;;;;;;8.02;4.35;;;;;;;;;;5013951;28;20396;-73
2022/07/04 07:26:56;;;;;;;6.97;2.67;;;;;;;;;;5013910;28;20026;-76
2022/07/04 07:29:22;;;;;;;4.95;3.05;;;;;;;;;;5012830;28;20385;-72
2022/07/04 07:31:48;;;;;;;9.75;5.72;;;;;;;;;;5013559;28;20033;-74
2022/07/04 07:34:14;;;;;;;7.00;4.97;;;;;;;;;;5013553;28;20022;-74
2022/07/04 07:36:40;;;;;;;5.70;3.03;;;;;;;;;;5012807;28;20403;-74
2022/07/04 07:39:06;;;;;;;3.97;1.75;;;;;;;;;;5013241;28;20026;-73
2022/07/04 07:41:32;;;;;;;6.60;3.80;;;38.30;25.10;;;;;;5013417;28;20057;-74
2022/07/04 07:43:58;;;;;;;5.55;3.78;;;38.40;25.10;;;;;;5013440;28;20413;-73
2022/07/04 07:46:23;;;;;;;3.55;1.85;;;38.50;25.20;;;;;;5013615;28;20112;-70
2022/07/04 07:48:49;;;;;;;3.67;1.45;;;39.10;24.30;;;;;;5013220;28;20021;-70
2022/07/04 07:51:16;;;;;;;4.70;2.75;;;39.40;23.80;;;;;;5013425;28;20022;-70
2022/07/04 07:53:42;;;;;;;4.10;1.98;;;38.90;24.80;;;;;;5013455;28;20077;-73
2022/07/04 07:56:08;;;;;;;5.57;1.30;;;39.90;23.80;;;;;;5013438;28;20022;-73
2022/07/04 07:58:33;;;;;;;5.50;2.03;;;39.90;23.60;;;;;;5013042;28;20034;-72
2022/07/04 08:01:01;;;;;;;6.63;3.40;;;39.20;24.00;;;;;;5013286;28;20013;-71
2022/07/04 08:06:12;;;;;;;5.60;1.60;;;37.60;24.80;;;;;;5013584;28;20088;-73
2022/07/04 08:08:38;;;;;;;5.30;1.02;;;37.60;25.30;;;;;;5013138;28;20439;-69
2022/07/04 08:11:07;;;;;;;2.90;1.73;;;37.80;24.30;;;;;;5013082;28;20096;-73
2022/07/04 08:13:33;;;;;;;5.22;1.52;;;37.10;25.50;;;;;;5012084;28;20026;-71
2022/07/04 08:15:58;;;;;;;7.38;1.60;;;35.20;27.50;;;;;;5013208;28;20198;-73
2022/07/04 08:18:24;;;;;;;4.50;1.92;;;34.50;28.60;;;;;;5013389;28;20076;-73
2022/07/04 08:20:50;;;;;;;4.30;1.98;;;33.90;30.10;;;;;;5014934;28;20022;-73
2022/07/04 08:23:16;;;;;;;2.95;1.38;;;34.90;29.00;;;;;;5015835;28;20026;-72
2022/07/04 08:25:41;;;;;;;4.32;1.25;;;35.80;27.60;;;;;;5014417;28;20038;-73
2022/07/04 08:28:07;;;;;;;6.60;1.65;;;35.50;28.10;;;;;;5014251;28;20029;-73
2022/07/04 08:30:33;;;;;;;4.00;1.92;;;35.60;28.40;;;;;;5014365;28;20029;-72
2022/07/04 08:32:58;;;;;;;3.72;1.20;;;36.40;27.70;;;;;;5014108;28;20105;-73
2022/07/04 08:35:25;;;;;;;5.72;1.15;;;36.10;26.90;;;;;;5011271;28;20404;-73
2022/07/04 08:37:53;;;;;;;5.03;1.60;;;34.90;28.40;;;;;;5012135;28;20057;-74
2022/07/04 08:40:24;;;;;;;5.10;1.60;;;33.80;30.40;;;;;;5011775;28;20018;-74
2022/07/04 08:42:50;;;;;;;1.83;1.30;;;;;;;;;;5012399;28;20031;-74
2022/07/04 08:45:17;;;;;;;13.43;9.13;;;;;;;;;;5012753;28;20026;-74
2022/07/04 08:47:43;;;;;;;3.22;2.05;;;;;;;;;;5012105;28;20026;-74
2022/07/04 08:50:10;;;;;;;2.75;1.33;;;;;;;;;;5010937;28;20097;-75
2022/07/04 08:52:41;;;;;;;4.05;1.30;;;32.10;32.70;;;;;;5012166;28;20032;-74
2022/07/04 09:00:37;;;;;;;2.75;1.17;;;31.40;34.20;;;;;;5012373;28;20049;-74
2022/07/04 09:03:04;;;;;;;3.13;1.70;;;31.00;35.40;;;;;;5004418;28;20504;-75
2022/07/04 09:05:34;;;;;;;3.35;1.35;;;31.50;34.70;;;;;;5010441;28;20049;-74
2022/07/04 09:08:00;;;;;;;10.88;5.38;;;33.00;32.30;;;;;;5010660;28;20106;-75
2022/07/04 09:10:26;;;;;;;2.95;1.20;;;33.90;30.60;;;;;;5011294;28;20483;-71
2022/07/04 09:12:52;;;;;;;2.95;1.10;;;34.00;30.30;;;;;;5002126;28;20026;-74
2022/07/04 09:15:19;;;;;;;3.05;1.63;;;34.50;29.10;;;;;;5011738;28;20030;-73
2022/07/04 09:17:45;;;;;;;3.80;2.20;;;33.80;29.80;;;;;;5010393;28;20042;-73
2022/07/04 09:20:15;;;;;;;5.47;2.17;;;31.90;32.80;;;;;;5012130;28;20483;-75
2022/07/04 09:22:42;;;;;;;2.45;0.90;;;32.40;33.30;;;;;;5011609;28;20064;-76
2022/07/04 09:25:08;;;;;;;3.00;1.60;;;31.90;33.40;;;;;;5011728;28;20026;-71
2022/07/04 09:27:44;;;;;;;3.63;2.00;;;31.60;34.30;;;;;;5011351;28;20022;-71
2022/07/04 09:30:10;;;;;;;6.35;1.33;;;32.20;33.70;;;;;;5011289;28;20026;-73
2022/07/04 09:32:37;;;;;;;3.70;1.52;;;;;;;;;;5011237;28;20040;-76
2022/07/04 09:35:04;;;;;;;4.47;2.30;;;;;;;;;;5011476;28;20109;-72
2022/07/04 09:37:34;;;;;;;7.43;2.30;;;;;;;;;;5011382;28;20041;-73
2022/07/04 09:40:00;;;;;;;4.00;1.50;;;32.50;31.60;;;;;;5011864;28;20097;-75
2022/07/04 09:42:34;;;;;;;4.28;2.45;;;32.40;31.80;;;;;;5011869;28;20026;-73
2022/07/04 09:45:06;;;;;;;1.67;1.00;;;32.30;33.30;;;;;;5011643;28;20101;-74
2022/07/04 09:47:31;;;;;;;6.30;3.97;;;32.60;32.80;;;;;;5011123;28;20548;-73
2022/07/04 09:50:01;;;;;;;3.97;1.77;;;32.50;32.80;;;;;;5011275;28;20030;-74
2022/07/04 09:52:29;;;;;;;4.10;2.27;;;32.80;32.50;;;;;;5011293;28;20026;-73
2022/07/04 09:55:05;;;;;;;2.33;1.73;;;33.40;31.80;;;;;;5010208;28;20272;-73
2022/07/04 09:57:31;;;;;;;4.45;3.00;;;33.90;31.00;;;;;;5011087;28;20026;-73
2022/07/04 10:00:26;;;;;;;6.32;2.70;;;33.90;30.70;;;;;;5010743;28;20025;-74
2022/07/04 10:02:53;;;;;;;5.00;2.38;;;34.00;30.30;;;;;;5009967;28;20385;-69
2022/07/04 10:05:21;;;;;;;3.28;1.38;;;34.60;30.10;;;;;;5009610;28;20383;-70
2022/07/04 10:07:47;;;;;;;4.35;1.27;;;35.00;29.20;;;;;;5010951;28;20033;-68
2022/07/04 10:10:27;;;;;;;5.88;3.10;;;35.30;29.10;;;;;;5033523;22;20132;-72
2022/07/04 10:12:59;;;;;;;3.10;1.67;;;35.30;29.00;;;;;;5010655;28;20484;-72
2022/07/04 10:15:25;;;;;;;4.05;2.05;;;34.90;28.70;;;;;;5011615;28;20109;-72
2022/07/04 10:17:51;;;;;;;6.65;2.75;;;34.50;29.50;;;;;;5009787;28;20101;-71
2022/07/04 10:20:16;;;;;;;3.65;1.55;;;34.60;29.40;;;;;;5011114;28;20149;-73
2022/07/04 10:22:42;;;;;;;4.03;1.35;;;34.80;29.40;;;;;;5011571;28;20503;-71
2022/07/04 10:25:09;;;;;;;3.92;1.55;;;34.00;29.60;;;;;;5011456;28;20018;-71
2022/07/04 10:27:36;;;;;;;7.78;3.42;;;33.90;30.80;;;;;;5010210;28;20084;-72
2022/07/04 10:30:04;;;;;;;5.38;3.42;;;33.90;30.80;;;;;;5011505;28;20025;-71
2022/07/04 10:32:30;;;;;;;3.20;1.40;;;33.50;30.70;;;;;;5011462;28;20026;-72
2022/07/04 10:34:56;;;;;;;5.18;3.28;;;33.50;30.50;;;;;;5011283;28;20026;-72
2022/07/04 10:37:22;;;;;;;6.05;2.83;;;32.60;31.90;;;;;;5011486;28;20109;-72
2022/07/04 10:39:48;;;;;;;4.00;1.65;;;32.30;32.90;;;;;;5011586;28;20053;-71
2022/07/04 10:42:24;;;;;;;2.85;0.82;;;;;;;;;;5011771;28;20429;-71
2022/07/04 10:44:50;;;;;;;2.30;1.08;;;;;;;;;;5011675;28;20451;-71
2022/07/04 10:47:30;;;;;;;8.38;1.60;;;29.70;34.90;;;;;;5011270;28;20018;-70
2022/07/04 10:49:56;;;;;;;4.75;2.30;;;28.90;37.10;;;;;;5012073;28;20033;-71
2022/07/04 10:52:22;;;;;;;3.88;1.20;;;29.10;38.90;;;;;;5011409;28;20373;-71
2022/07/04 10:54:47;;;;;;;5.07;1.30;;;29.30;37.50;;;;;;5011375;28;20033;-71
2022/07/04 10:57:13;;;;;;;2.30;1.83;;;29.50;37.80;;;;;;5010983;28;20080;-71
2022/07/04 10:59:41;;;;;;;3.40;1.60;;;29.60;37.30;;;;;;5009432;28;20030;-72
2022/07/04 11:02:06;;;;;;;3.17;1.52;;;29.40;37.30;;;;;;5011385;28;20030;-72
2022/07/04 11:04:53;;;;;;;6.22;2.10;;;29.00;37.70;;;;;;5014086;28;20029;-71
2022/07/04 11:07:20;;;;;;;3.03;1.92;;;28.90;37.90;;;;;;5014595;28;20034;-71
2022/07/04 11:09:47;;;;;;;5.65;1.80;;;29.10;38.40;;;;;;5012981;28;20108;-71
2022/07/04 11:12:14;;;;;;;9.40;1.85;;;29.20;37.30;;;;;;5013308;28;20043;-72
2022/07/04 11:14:47;;;;;;;10.20;1.60;;;29.00;37.60;;;;;;5014364;28;20037;-71
2022/07/04 11:17:14;;;;;;;6.20;1.60;;;28.50;38.10;;;;;;5014436;28;20419;-70
2022/07/04 11:19:41;;;;;;;2.10;1.10;;;28.20;39.20;;;;;;5014126;28;20087;-71
2022/07/04 11:22:09;;;;;;;3.88;1.23;;;28.10;38.60;;;;;;5014342;28;20117;-71
2022/07/04 11:24:35;;;;;;;3.28;1.70;;;27.40;39.80;;;;;;5014405;28;20384;-71
2022/07/04 11:27:02;;;;;;;4.53;1.20;;;27.50;39.70;;;;;;5014154;28;20105;-71
2022/07/04 11:29:29;;;;;;;3.42;2.30;;;27.60;39.70;;;;;;5014522;28;20029;-71
2022/07/04 11:31:55;;;;;;;3.13;1.25;;;28.00;41.00;;;;;;5014021;28;20033;-71
2022/07/04 11:34:21;;;;;;;3.08;1.60;;;28.40;39.20;;;;;;5013940;28;20026;-71
2022/07/04 11:36:49;;;;;;;1.85;1.25;;;28.80;38.30;;;;;;5013974;28;20104;-72
2022/07/04 11:39:21;;;;;;;3.60;1.45;;;29.00;37.60;;;;;;5013807;28;20029;-71
2022/07/04 11:47:36;;;;;;;2.85;1.20;;;27.70;39.60;;;;;;5013896;28;20110;-70
2022/07/04 11:50:08;;;;;;;3.00;1.45;;;27.90;39.20;;;;;;5013964;28;20026;-71
2022/07/04 11:52:37;;;;;;;14.20;1.83;;;28.20;38.90;;;;;;5014175;28;20030;-71
2022/07/04 11:55:11;;;;;;;3.25;1.40;;;28.30;39.80;;;;;;5013473;28;20022;-71
2022/07/04 11:57:41;;;;;;;1.88;0.98;;;28.70;38.30;;;;;;5013554;28;20022;-72
2022/07/04 12:00:13;;;;;;;2.20;1.10;;;28.80;37.50;;;;;;5013563;28;20068;-71
2022/07/04 12:02:39;;;;;;;6.13;1.42;;;28.70;37.60;;;;;;5012118;28;20037;-71
2022/07/04 12:05:07;;;;;;;5.18;1.60;;;28.00;38.80;;;;;;5012406;28;20026;-71
2022/07/04 12:07:35;;;;;;;2.97;1.38;;;27.90;40.00;;;;;;5016782;28;20076;-71
2022/07/04 12:10:21;;;;;;;3.08;1.33;;;28.30;39.60;;;;;;5017148;28;20036;-70
2022/07/04 12:12:56;;;;;;;8.75;1.42;;;28.80;38.50;;;;;;5015152;28;20022;-71
2022/07/04 12:15:23;;;;;;;9.40;1.25;;;28.70;38.30;;;;;;5017189;28;20068;-71
2022/07/04 12:17:54;;;;;;;3.78;1.08;;;28.60;38.60;;;;;;5012774;28;20034;-71
2022/07/04 12:20:21;;;;;;;;;;;28.40;38.70;;;;;;5015072;28;20037;-71
2022/07/04 12:22:52;;;;;;;2.95;1.10;;;28.60;38.70;;;;;;5017587;28;19905;-72
2022/07/04 12:25:24;;;;;;;5.80;1.38;;;29.10;38.90;;;;;;5016372;28;20049;-71
2022/07/04 12:27:55;;;;;;;6.15;1.48;;;29.70;37.70;;;;;;5012723;28;20079;-71
2022/07/04 12:30:21;;;;;;;5.45;1.50;;;30.00;36.50;;;;;;5010488;28;20495;-71
2022/07/04 12:32:51;;;;;;;1.63;1.30;;;29.80;35.70;;;;;;5009588;28;20551;-72
2022/07/04 12:35:42;;;;;;;3.97;1.50;;;29.40;37.50;;;;;;5010836;28;20026;-71
2022/07/04 12:38:11;;;;;;;4.00;1.27;;;29.30;37.50;;;;;;5010356;28;20045;-72
2022/07/04 12:40:48;;;;;;;5.25;1.48;;;29.20;37.00;;;;;;5009408;28;20259;-72
2022/07/04 12:43:14;;;;;;;4.32;1.25;;;29.30;37.80;;;;;;5010799;28;20092;-70
2022/07/04 12:45:54;;;;;;;5.68;1.45;;;29.10;36.90;;;;;;5010681;28;20033;-70
2022/07/04 12:48:22;;;;;;;4.68;1.20;;;;;;;;;;5011838;28;20053;-71
2022/07/04 12:50:48;;;;;;;8.93;1.70;;;27.90;38.70;;;;;;5012752;28;20511;-71
2022/07/04 12:53:14;;;;;;;3.60;1.10;;;27.90;39.40;;;;;;5012585;28;20033;-71
2022/07/04 12:55:47;;;;;;;6.82;1.70;;;28.10;38.80;;;;;;5012538;28;20030;-71
2022/07/04 12:58:13;;;;;;;6.18;1.83;;;28.00;38.90;;;;;;5012059;28;20022;-70
2022/07/04 13:00:40;;;;;;;4.25;0.90;;;28.10;39.00;;;;;;5012143;28;20079;-71
2022/07/04 13:03:06;;;;;;;6.45;1.60;;;28.20;38.50;;;;;;5012500;28;20480;-71
2022/07/04 13:05:36;;;;;;;5.60;1.25;;;28.00;38.60;;;;;;5012311;28;20373;-71
2022/07/04 13:08:03;;;;;;;7.97;1.10;;;28.10;39.00;;;;;;5012302;28;20033;-72
2022/07/04 13:10:29;;;;;;;5.40;1.73;;;27.90;38.70;;;;;;5010913;28;20025;-72
2022/07/04 13:12:54;;;;;;;8.32;1.30;;;27.80;39.70;;;;;;5012779;28;20368;-71
2022/07/04 13:15:20;;;;;;;3.47;1.23;;;27.80;39.20;;;;;;5012307;28;20022;-71
2022/07/04 13:17:46;;;;;;;2.83;1.25;;;27.70;39.00;;;;;;5012088;28;20026;-71
2022/07/04 13:20:12;;;;;;;5.45;1.20;;;27.40;39.90;;;;;;5012200;28;20033;-72
2022/07/04 13:22:38;;;;;;;2.63;1.10;;;27.50;40.50;;;;;;5012309;28;20030;-70
2022/07/04 13:25:04;;;;;;;8.40;1.00;;;27.80;39.40;;;;;;5012206;28;20107;-71